sensor_id;sensor_type;location;lat;lon;timestamp;temperature;humidity
7576;DHT22;3829;50.798;4.358;2022-10-18T00:01:05;17.00;99.90
7576;DHT22;3829;50.798;4.358;2022-10-18T00:03:32;16.90;99.90
7576;DHT22;3829;50.798;4.358;2022-10-18T00:05:58;17.00;99.90
7576;DHT22;3829;50.798;4.358;2022-10-18T00:08:24;17.10;99.90
7576;DHT22;3829;50.798;4.358;2022-10-18T00:10:49;17.10;99.90
7576;DHT22;3829;50.798;4.358;2022-10-18T00:13:15;17.10;99.90
7576;DHT22;3829;50.798;4.358;2022-10-18T00:15:56;17.00;99.90
7576;DHT22;3829;50.798;4.358;2022-10-18T00:18:22;17.00;99.90
7576;DHT22;3829;50.798;4.358;2022-10-18T00:21:02;17.00;99.90
7576;DHT22;3829;50.798;4.358;2022-10-18T00:23:30;17.10;99.90
7576;DHT22;3829;50.798;4.358;2022-10-18T00:28:33;16.80;99.90
7576;DHT22;3829;50.798;4.358;2022-10-18T00:31:35;16.80;99.90
7576;DHT22;3829;50.798;4.358;2022-10-18T00:34:10;16.70;99.90
7576;DHT22;3829;50.798;4.358;2022-10-18T00:36:36;16.80;99.90
7576;DHT22;3829;50.798;4.358;2022-10-18T00:39:03;16.80;99.90
7576;DHT22;3829;50.798;4.358;2022-10-18T00:41:32;16.80;99.90
7576;DHT22;3829;50.798;4.358;2022-10-18T00:44:05;16.80;99.90
7576;DHT22;3829;50.798;4.358;2022-10-18T00:46:35;16.80;99.90
7576;DHT22;3829;50.798;4.358;2022-10-18T00:49:22;16.80;99.90
7576;DHT22;3829;50.798;4.358;2022-10-18T00:52:04;16.70;99.90
7576;DHT22;3829;50.798;4.358;2022-10-18T00:54:33;16.70;99.90
7576;DHT22;3829;50.798;4.358;2022-10-18T00:57:00;16.60;99.90
7576;DHT22;3829;50.798;4.358;2022-10-18T00:59:27;16.60;99.90
7576;DHT22;3829;50.798;4.358;2022-10-18T01:01:53;16.60;99.90
7576;DHT22;3829;50.798;4.358;2022-10-18T01:04:20;16.60;99.90
7576;DHT22;3829;50.798;4.358;2022-10-18T01:15:33;16.80;99.90
7576;DHT22;3829;50.798;4.358;2022-10-18T01:26:43;16.80;99.90
7576;DHT22;3829;50.798;4.358;2022-10-18T01:29:43;16.80;99.90
7576;DHT22;3829;50.798;4.358;2022-10-18T01:32:17;16.70;99.90
7576;DHT22;3829;50.798;4.358;2022-10-18T01:34:47;16.70;99.90
7576;DHT22;3829;50.798;4.358;2022-10-18T01:37:16;16.70;99.90
7576;DHT22;3829;50.798;4.358;2022-10-18T01:39:45;16.80;99.90
7576;DHT22;3829;50.798;4.358;2022-10-18T01:42:13;16.70;99.90
7576;DHT22;3829;50.798;4.358;2022-10-18T01:44:40;16.60;99.90
7576;DHT22;3829;50.798;4.358;2022-10-18T01:47:08;16.60;99.90
7576;DHT22;3829;50.798;4.358;2022-10-18T01:49:35;16.60;99.90
7576;DHT22;3829;50.798;4.358;2022-10-18T01:52:01;16.50;99.90
7576;DHT22;3829;50.798;4.358;2022-10-18T01:54:38;16.50;99.90
7576;DHT22;3829;50.798;4.358;2022-10-18T02:00:30;16.50;99.90
7576;DHT22;3829;50.798;4.358;2022-10-18T02:03:09;16.50;99.90
7576;DHT22;3829;50.798;4.358;2022-10-18T02:05:49;16.50;99.90
7576;DHT22;3829;50.798;4.358;2022-10-18T02:08:32;16.50;99.90
7576;DHT22;3829;50.798;4.358;2022-10-18T02:11:02;16.60;99.90
7576;DHT22;3829;50.798;4.358;2022-10-18T02:13:36;16.50;99.90
7576;DHT22;3829;50.798;4.358;2022-10-18T02:16:08;16.50;99.90
7576;DHT22;3829;50.798;4.358;2022-10-18T02:18:44;16.50;99.90
7576;DHT22;3829;50.798;4.358;2022-10-18T02:21:15;16.40;99.90
7576;DHT22;3829;50.798;4.358;2022-10-18T02:23:43;16.40;99.90
7576;DHT22;3829;50.798;4.358;2022-10-18T02:26:10;16.40;99.90
7576;DHT22;3829;50.798;4.358;2022-10-18T02:28:35;16.40;99.90
7576;DHT22;3829;50.798;4.358;2022-10-18T02:36:47;16.40;99.90
7576;DHT22;3829;50.798;4.358;2022-10-18T02:39:18;16.40;99.90
7576;DHT22;3829;50.798;4.358;2022-10-18T02:41:44;16.40;99.90
7576;DHT22;3829;50.798;4.358;2022-10-18T02:44:11;16.40;99.90
7576;DHT22;3829;50.798;4.358;2022-10-18T02:46:36;16.40;99.90
7576;DHT22;3829;50.798;4.358;2022-10-18T02:49:02;16.40;99.90
7576;DHT22;3829;50.798;4.358;2022-10-18T02:51:28;16.40;99.90
7576;DHT22;3829;50.798;4.358;2022-10-18T02:53:54;16.50;99.90
7576;DHT22;3829;50.798;4.358;2022-10-18T02:56:19;16.50;99.90
7576;DHT22;3829;50.798;4.358;2022-10-18T02:58:45;16.50;99.90
7576;DHT22;3829;50.798;4.358;2022-10-18T03:01:10;16.50;99.90
7576;DHT22;3829;50.798;4.358;2022-10-18T03:03:38;16.50;99.90
7576;DHT22;3829;50.798;4.358;2022-10-18T03:06:04;16.40;99.90
7576;DHT22;3829;50.798;4.358;2022-10-18T03:08:30;16.40;99.90
7576;DHT22;3829;50.798;4.358;2022-10-18T03:10:55;16.40;99.90
7576;DHT22;3829;50.798;4.358;2022-10-18T03:13:21;16.40;99.90
7576;DHT22;3829;50.798;4.358;2022-10-18T03:15:47;16.50;99.90
7576;DHT22;3829;50.798;4.358;2022-10-18T03:18:13;16.60;99.90
7576;DHT22;3829;50.798;4.358;2022-10-18T03:20:39;16.60;99.90
7576;DHT22;3829;50.798;4.358;2022-10-18T03:23:05;16.70;99.90
7576;DHT22;3829;50.798;4.358;2022-10-18T03:25:31;16.60;99.90
7576;DHT22;3829;50.798;4.358;2022-10-18T03:27:57;16.60;99.90
7576;DHT22;3829;50.798;4.358;2022-10-18T03:30:23;16.60;99.90
7576;DHT22;3829;50.798;4.358;2022-10-18T03:32:48;16.60;99.90
7576;DHT22;3829;50.798;4.358;2022-10-18T03:35:14;16.60;99.90
7576;DHT22;3829;50.798;4.358;2022-10-18T03:37:39;16.60;99.90
7576;DHT22;3829;50.798;4.358;2022-10-18T03:40:06;16.70;99.90
7576;DHT22;3829;50.798;4.358;2022-10-18T03:42:31;16.70;99.90
7576;DHT22;3829;50.798;4.358;2022-10-18T03:44:57;16.80;99.90
7576;DHT22;3829;50.798;4.358;2022-10-18T03:47:22;16.80;99.90
7576;DHT22;3829;50.798;4.358;2022-10-18T03:49:48;16.90;99.90
7576;DHT22;3829;50.798;4.358;2022-10-18T03:52:14;16.80;99.90
7576;DHT22;3829;50.798;4.358;2022-10-18T03:54:39;16.90;99.90
7576;DHT22;3829;50.798;4.358;2022-10-18T03:57:05;16.90;99.90
7576;DHT22;3829;50.798;4.358;2022-10-18T03:59:30;17.00;99.90
7576;DHT22;3829;50.798;4.358;2022-10-18T04:01:56;17.00;99.90
7576;DHT22;3829;50.798;4.358;2022-10-18T04:04:21;17.00;99.90
7576;DHT22;3829;50.798;4.358;2022-10-18T04:06:47;17.00;99.90
7576;DHT22;3829;50.798;4.358;2022-10-18T04:09:12;17.00;99.90
7576;DHT22;3829;50.798;4.358;2022-10-18T04:11:38;17.00;99.90
7576;DHT22;3829;50.798;4.358;2022-10-18T04:14:04;17.00;99.90
7576;DHT22;3829;50.798;4.358;2022-10-18T04:16:29;17.00;99.90
7576;DHT22;3829;50.798;4.358;2022-10-18T04:18:55;16.90;99.90
7576;DHT22;3829;50.798;4.358;2022-10-18T04:21:21;17.00;99.90
7576;DHT22;3829;50.798;4.358;2022-10-18T04:23:47;17.10;99.90
7576;DHT22;3829;50.798;4.358;2022-10-18T04:26:13;17.10;99.90
7576;DHT22;3829;50.798;4.358;2022-10-18T04:28:41;16.90;99.90
7576;DHT22;3829;50.798;4.358;2022-10-18T04:31:07;17.00;99.90
7576;DHT22;3829;50.798;4.358;2022-10-18T04:33:33;16.90;99.90
7576;DHT22;3829;50.798;4.358;2022-10-18T04:35:59;16.90;99.90
7576;DHT22;3829;50.798;4.358;2022-10-18T04:38:25;17.00;99.90
7576;DHT22;3829;50.798;4.358;2022-10-18T04:40:50;17.10;99.90
7576;DHT22;3829;50.798;4.358;2022-10-18T04:43:16;17.00;99.90
7576;DHT22;3829;50.798;4.358;2022-10-18T04:45:44;17.10;99.90
7576;DHT22;3829;50.798;4.358;2022-10-18T04:48:10;16.90;99.90
7576;DHT22;3829;50.798;4.358;2022-10-18T04:50:35;16.90;99.90
7576;DHT22;3829;50.798;4.358;2022-10-18T04:53:01;16.90;99.90
7576;DHT22;3829;50.798;4.358;2022-10-18T04:55:26;16.90;99.90
7576;DHT22;3829;50.798;4.358;2022-10-18T04:57:52;16.90;99.90
7576;DHT22;3829;50.798;4.358;2022-10-18T05:00:17;16.90;99.90
7576;DHT22;3829;50.798;4.358;2022-10-18T05:02:43;17.00;99.90
7576;DHT22;3829;50.798;4.358;2022-10-18T05:05:09;16.90;99.90
7576;DHT22;3829;50.798;4.358;2022-10-18T05:07:34;16.90;99.90
7576;DHT22;3829;50.798;4.358;2022-10-18T05:10:00;16.90;99.90
7576;DHT22;3829;50.798;4.358;2022-10-18T05:12:25;16.90;99.90
7576;DHT22;3829;50.798;4.358;2022-10-18T05:14:51;16.80;99.90
7576;DHT22;3829;50.798;4.358;2022-10-18T05:17:16;16.70;99.90
7576;DHT22;3829;50.798;4.358;2022-10-18T05:19:42;16.60;99.90
7576;DHT22;3829;50.798;4.358;2022-10-18T05:22:07;16.60;99.90
7576;DHT22;3829;50.798;4.358;2022-10-18T05:24:33;16.70;99.90
7576;DHT22;3829;50.798;4.358;2022-10-18T05:26:58;16.80;99.90
7576;DHT22;3829;50.798;4.358;2022-10-18T05:29:24;16.90;99.90
7576;DHT22;3829;50.798;4.358;2022-10-18T05:31:50;17.00;99.90
7576;DHT22;3829;50.798;4.358;2022-10-18T05:34:17;17.00;99.90
7576;DHT22;3829;50.798;4.358;2022-10-18T05:36:43;17.00;99.90
7576;DHT22;3829;50.798;4.358;2022-10-18T05:39:08;16.90;99.90
7576;DHT22;3829;50.798;4.358;2022-10-18T05:41:35;16.80;99.90
7576;DHT22;3829;50.798;4.358;2022-10-18T05:44:04;16.60;99.90
7576;DHT22;3829;50.798;4.358;2022-10-18T05:46:30;16.50;99.90
7576;DHT22;3829;50.798;4.358;2022-10-18T05:48:56;16.50;99.90
7576;DHT22;3829;50.798;4.358;2022-10-18T05:51:21;16.50;99.90
7576;DHT22;3829;50.798;4.358;2022-10-18T05:53:47;16.50;99.90
7576;DHT22;3829;50.798;4.358;2022-10-18T05:56:12;16.40;99.90
7576;DHT22;3829;50.798;4.358;2022-10-18T05:58:39;16.30;99.90
7576;DHT22;3829;50.798;4.358;2022-10-18T06:01:05;16.30;99.90
7576;DHT22;3829;50.798;4.358;2022-10-18T06:03:31;16.40;99.90
7576;DHT22;3829;50.798;4.358;2022-10-18T06:06:05;16.30;99.90
7576;DHT22;3829;50.798;4.358;2022-10-18T06:08:32;16.20;99.90
7576;DHT22;3829;50.798;4.358;2022-10-18T06:10:57;16.30;99.90
7576;DHT22;3829;50.798;4.358;2022-10-18T06:13:23;16.40;99.90
7576;DHT22;3829;50.798;4.358;2022-10-18T06:15:49;16.40;99.90
7576;DHT22;3829;50.798;4.358;2022-10-18T06:18:15;16.40;99.90
7576;DHT22;3829;50.798;4.358;2022-10-18T06:20:40;16.40;99.90
7576;DHT22;3829;50.798;4.358;2022-10-18T06:23:06;16.40;99.90
7576;DHT22;3829;50.798;4.358;2022-10-18T06:25:32;16.50;99.90
7576;DHT22;3829;50.798;4.358;2022-10-18T06:27:57;16.40;99.90
7576;DHT22;3829;50.798;4.358;2022-10-18T06:30:23;16.30;99.90
7576;DHT22;3829;50.798;4.358;2022-10-18T06:32:48;16.20;99.90
7576;DHT22;3829;50.798;4.358;2022-10-18T06:35:14;16.10;99.90
7576;DHT22;3829;50.798;4.358;2022-10-18T06:37:40;16.00;99.90
7576;DHT22;3829;50.798;4.358;2022-10-18T06:40:06;16.00;99.90
7576;DHT22;3829;50.798;4.358;2022-10-18T06:42:31;16.10;99.90
7576;DHT22;3829;50.798;4.358;2022-10-18T06:44:57;16.10;99.90
7576;DHT22;3829;50.798;4.358;2022-10-18T06:47:23;16.10;99.90
7576;DHT22;3829;50.798;4.358;2022-10-18T06:49:48;16.20;99.90
7576;DHT22;3829;50.798;4.358;2022-10-18T06:52:17;16.10;99.90
7576;DHT22;3829;50.798;4.358;2022-10-18T06:54:45;16.00;99.90
7576;DHT22;3829;50.798;4.358;2022-10-18T06:57:10;15.90;99.90
7576;DHT22;3829;50.798;4.358;2022-10-18T06:59:36;16.00;99.90
7576;DHT22;3829;50.798;4.358;2022-10-18T07:02:01;15.90;99.90
7576;DHT22;3829;50.798;4.358;2022-10-18T07:04:27;15.90;99.90
7576;DHT22;3829;50.798;4.358;2022-10-18T07:06:54;15.80;99.90
7576;DHT22;3829;50.798;4.358;2022-10-18T07:09:20;15.90;99.90
7576;DHT22;3829;50.798;4.358;2022-10-18T07:11:46;15.90;99.90
7576;DHT22;3829;50.798;4.358;2022-10-18T07:14:12;15.90;99.90
7576;DHT22;3829;50.798;4.358;2022-10-18T07:16:37;15.80;99.90
7576;DHT22;3829;50.798;4.358;2022-10-18T07:19:03;15.70;99.90
7576;DHT22;3829;50.798;4.358;2022-10-18T07:21:29;15.60;99.90
7576;DHT22;3829;50.798;4.358;2022-10-18T07:23:56;15.60;99.90
7576;DHT22;3829;50.798;4.358;2022-10-18T07:26:27;15.60;99.90
7576;DHT22;3829;50.798;4.358;2022-10-18T07:28:56;15.70;99.90
7576;DHT22;3829;50.798;4.358;2022-10-18T07:31:23;15.70;99.90
7576;DHT22;3829;50.798;4.358;2022-10-18T07:33:48;15.80;99.90
7576;DHT22;3829;50.798;4.358;2022-10-18T07:36:15;15.80;99.90
7576;DHT22;3829;50.798;4.358;2022-10-18T07:38:43;15.80;99.90
7576;DHT22;3829;50.798;4.358;2022-10-18T07:41:10;15.80;99.90
7576;DHT22;3829;50.798;4.358;2022-10-18T07:43:47;15.70;99.90
7576;DHT22;3829;50.798;4.358;2022-10-18T07:46:14;15.60;99.90
7576;DHT22;3829;50.798;4.358;2022-10-18T07:48:40;15.60;99.90
7576;DHT22;3829;50.798;4.358;2022-10-18T07:51:06;15.60;99.90
7576;DHT22;3829;50.798;4.358;2022-10-18T07:53:31;15.70;99.90
7576;DHT22;3829;50.798;4.358;2022-10-18T07:56:01;15.90;99.90
7576;DHT22;3829;50.798;4.358;2022-10-18T07:58:27;16.10;99.90
7576;DHT22;3829;50.798;4.358;2022-10-18T08:00:53;16.30;99.90
7576;DHT22;3829;50.798;4.358;2022-10-18T08:03:19;16.50;99.90
7576;DHT22;3829;50.798;4.358;2022-10-18T08:05:51;16.70;99.90
7576;DHT22;3829;50.798;4.358;2022-10-18T08:08:17;16.70;99.90
7576;DHT22;3829;50.798;4.358;2022-10-18T08:10:43;16.70;99.90
7576;DHT22;3829;50.798;4.358;2022-10-18T08:13:08;16.90;99.90
7576;DHT22;3829;50.798;4.358;2022-10-18T08:15:34;17.00;99.90
7576;DHT22;3829;50.798;4.358;2022-10-18T08:17:59;17.00;99.90
7576;DHT22;3829;50.798;4.358;2022-10-18T08:20:25;17.20;99.90
7576;DHT22;3829;50.798;4.358;2022-10-18T08:22:50;17.20;99.90
7576;DHT22;3829;50.798;4.358;2022-10-18T08:25:16;17.30;99.90
7576;DHT22;3829;50.798;4.358;2022-10-18T08:27:42;17.40;99.90
7576;DHT22;3829;50.798;4.358;2022-10-18T08:30:07;17.40;99.90
7576;DHT22;3829;50.798;4.358;2022-10-18T08:32:34;17.40;99.90
7576;DHT22;3829;50.798;4.358;2022-10-18T08:35:00;17.50;99.90
7576;DHT22;3829;50.798;4.358;2022-10-18T08:37:25;17.60;99.90
7576;DHT22;3829;50.798;4.358;2022-10-18T08:39:51;17.70;99.90
7576;DHT22;3829;50.798;4.358;2022-10-18T08:44:47;17.80;99.90
7576;DHT22;3829;50.798;4.358;2022-10-18T08:47:33;18.00;99.90
7576;DHT22;3829;50.798;4.358;2022-10-18T08:50:02;17.90;99.90
7576;DHT22;3829;50.798;4.358;2022-10-18T08:52:37;18.10;99.90
7576;DHT22;3829;50.798;4.358;2022-10-18T08:57:51;18.40;99.90
7576;DHT22;3829;50.798;4.358;2022-10-18T09:00:22;18.40;99.90
7576;DHT22;3829;50.798;4.358;2022-10-18T09:05:50;18.50;99.90
7576;DHT22;3829;50.798;4.358;2022-10-18T09:16:57;18.70;99.90
7576;DHT22;3829;50.798;4.358;2022-10-18T09:19:54;18.80;99.90
7576;DHT22;3829;50.798;4.358;2022-10-18T09:25:17;18.90;99.90
7576;DHT22;3829;50.798;4.358;2022-10-18T09:27:56;18.90;99.90
7576;DHT22;3829;50.798;4.358;2022-10-18T09:33:28;18.90;99.90
7576;DHT22;3829;50.798;4.358;2022-10-18T09:36:00;18.90;99.90
7576;DHT22;3829;50.798;4.358;2022-10-18T09:38:31;18.90;99.90
7576;DHT22;3829;50.798;4.358;2022-10-18T09:41:07;19.00;99.90
7576;DHT22;3829;50.798;4.358;2022-10-18T09:47:02;19.20;99.90
7576;DHT22;3829;50.798;4.358;2022-10-18T09:49:33;19.30;99.90
7576;DHT22;3829;50.798;4.358;2022-10-18T09:52:06;19.30;99.90
7576;DHT22;3829;50.798;4.358;2022-10-18T09:54:40;19.30;99.90
7576;DHT22;3829;50.798;4.358;2022-10-18T09:57:15;19.50;99.90
7576;DHT22;3829;50.798;4.358;2022-10-18T09:59:45;19.40;99.90
7576;DHT22;3829;50.798;4.358;2022-10-18T10:02:19;19.50;99.90
7576;DHT22;3829;50.798;4.358;2022-10-18T10:04:47;19.50;99.90
7576;DHT22;3829;50.798;4.358;2022-10-18T10:07:23;19.50;99.90
7576;DHT22;3829;50.798;4.358;2022-10-18T10:09:58;19.40;99.90
7576;DHT22;3829;50.798;4.358;2022-10-18T10:12:33;19.50;99.90
7576;DHT22;3829;50.798;4.358;2022-10-18T10:15:21;19.40;99.90
7576;DHT22;3829;50.798;4.358;2022-10-18T10:18:02;19.40;99.90
7576;DHT22;3829;50.798;4.358;2022-10-18T10:20:44;19.50;99.90
7576;DHT22;3829;50.798;4.358;2022-10-18T10:23:36;19.40;99.90
7576;DHT22;3829;50.798;4.358;2022-10-18T10:26:27;19.60;99.90
7576;DHT22;3829;50.798;4.358;2022-10-18T10:28:53;19.50;99.90
7576;DHT22;3829;50.798;4.358;2022-10-18T10:31:29;19.50;99.90
7576;DHT22;3829;50.798;4.358;2022-10-18T10:34:04;19.60;99.90
7576;DHT22;3829;50.798;4.358;2022-10-18T10:36:31;19.80;99.90
7576;DHT22;3829;50.798;4.358;2022-10-18T10:39:09;19.80;99.90
7576;DHT22;3829;50.798;4.358;2022-10-18T10:41:36;19.90;99.90
7576;DHT22;3829;50.798;4.358;2022-10-18T10:44:04;20.00;99.90
7576;DHT22;3829;50.798;4.358;2022-10-18T10:46:38;20.00;99.90
7576;DHT22;3829;50.798;4.358;2022-10-18T10:49:03;19.90;99.90
7576;DHT22;3829;50.798;4.358;2022-10-18T10:51:37;19.70;99.90
7576;DHT22;3829;50.798;4.358;2022-10-18T10:54:20;19.70;99.90
7576;DHT22;3829;50.798;4.358;2022-10-18T10:59:43;19.80;99.90
7576;DHT22;3829;50.798;4.358;2022-10-18T11:04:39;19.90;99.90
7576;DHT22;3829;50.798;4.358;2022-10-18T11:10:01;19.90;99.90
7576;DHT22;3829;50.798;4.358;2022-10-18T11:12:41;20.00;99.90
7576;DHT22;3829;50.798;4.358;2022-10-18T11:20:20;20.30;99.90
7576;DHT22;3829;50.798;4.358;2022-10-18T11:23:04;20.20;99.90
7576;DHT22;3829;50.798;4.358;2022-10-18T11:25:43;20.00;99.90
7576;DHT22;3829;50.798;4.358;2022-10-18T11:31:17;20.40;99.90
7576;DHT22;3829;50.798;4.358;2022-10-18T11:41:54;20.70;99.90
7576;DHT22;3829;50.798;4.358;2022-10-18T11:44:45;20.50;99.90
7576;DHT22;3829;50.798;4.358;2022-10-18T11:58:12;20.30;99.90
7576;DHT22;3829;50.798;4.358;2022-10-18T12:00:52;20.40;99.90
7576;DHT22;3829;50.798;4.358;2022-10-18T12:06:08;20.50;99.90
7576;DHT22;3829;50.798;4.358;2022-10-18T12:08:39;20.50;99.90
7576;DHT22;3829;50.798;4.358;2022-10-18T12:11:14;20.50;99.90
7576;DHT22;3829;50.798;4.358;2022-10-18T12:13:49;20.40;99.90
7576;DHT22;3829;50.798;4.358;2022-10-18T12:16:18;20.40;99.90
7576;DHT22;3829;50.798;4.358;2022-10-18T12:18:50;20.30;99.90
7576;DHT22;3829;50.798;4.358;2022-10-18T12:21:19;20.20;99.90
7576;DHT22;3829;50.798;4.358;2022-10-18T12:24:02;20.30;99.90
7576;DHT22;3829;50.798;4.358;2022-10-18T12:26:31;20.40;99.90
7576;DHT22;3829;50.798;4.358;2022-10-18T12:32:13;20.60;99.90
7576;DHT22;3829;50.798;4.358;2022-10-18T12:34:50;20.70;99.90
7576;DHT22;3829;50.798;4.358;2022-10-18T12:39:55;20.90;99.90
7576;DHT22;3829;50.798;4.358;2022-10-18T12:42:28;21.00;99.90
7576;DHT22;3829;50.798;4.358;2022-10-18T12:47:48;20.90;99.90
7576;DHT22;3829;50.798;4.358;2022-10-18T12:50:37;20.80;99.90
7576;DHT22;3829;50.798;4.358;2022-10-18T12:53:23;20.90;99.90
7576;DHT22;3829;50.798;4.358;2022-10-18T12:55:51;20.90;99.90
7576;DHT22;3829;50.798;4.358;2022-10-18T13:24:43;20.90;99.90
7576;DHT22;3829;50.798;4.358;2022-10-18T13:33:15;20.90;99.90
7576;DHT22;3829;50.798;4.358;2022-10-18T13:38:40;20.90;99.90
7576;DHT22;3829;50.798;4.358;2022-10-18T13:41:10;20.90;99.90
7576;DHT22;3829;50.798;4.358;2022-10-18T13:46:19;20.80;99.90
7576;DHT22;3829;50.798;4.358;2022-10-18T13:48:49;20.80;99.90
7576;DHT22;3829;50.798;4.358;2022-10-18T13:51:34;20.90;99.90
7576;DHT22;3829;50.798;4.358;2022-10-18T13:59:49;20.60;99.90
7576;DHT22;3829;50.798;4.358;2022-10-18T14:08:14;20.70;99.90
7576;DHT22;3829;50.798;4.358;2022-10-18T14:13:32;20.70;99.90
7576;DHT22;3829;50.798;4.358;2022-10-18T14:16:09;20.80;99.90
7576;DHT22;3829;50.798;4.358;2022-10-18T14:18:40;21.10;99.90
7576;DHT22;3829;50.798;4.358;2022-10-18T14:21:11;21.30;99.90
7576;DHT22;3829;50.798;4.358;2022-10-18T14:23:44;21.70;99.90
7576;DHT22;3829;50.798;4.358;2022-10-18T14:26:18;22.10;99.90
7576;DHT22;3829;50.798;4.358;2022-10-18T14:28:44;22.40;99.90
7576;DHT22;3829;50.798;4.358;2022-10-18T14:31:15;22.60;99.90
7576;DHT22;3829;50.798;4.358;2022-10-18T14:33:45;22.70;99.90
7576;DHT22;3829;50.798;4.358;2022-10-18T14:36:21;22.40;99.90
7576;DHT22;3829;50.798;4.358;2022-10-18T14:38:59;21.90;99.90
7576;DHT22;3829;50.798;4.358;2022-10-18T14:41:36;21.70;99.90
7576;DHT22;3829;50.798;4.358;2022-10-18T14:44:31;21.20;99.90
7576;DHT22;3829;50.798;4.358;2022-10-18T14:47:11;21.00;99.90
7576;DHT22;3829;50.798;4.358;2022-10-18T14:49:42;20.70;99.90
7576;DHT22;3829;50.798;4.358;2022-10-18T14:52:14;20.40;99.90
7576;DHT22;3829;50.798;4.358;2022-10-18T14:54:40;20.30;99.90
7576;DHT22;3829;50.798;4.358;2022-10-18T14:57:07;20.10;99.90
7576;DHT22;3829;50.798;4.358;2022-10-18T14:59:44;19.90;99.90
7576;DHT22;3829;50.798;4.358;2022-10-18T15:02:15;19.80;99.90
7576;DHT22;3829;50.798;4.358;2022-10-18T15:04:46;19.70;99.90
7576;DHT22;3829;50.798;4.358;2022-10-18T15:07:13;19.70;99.90
7576;DHT22;3829;50.798;4.358;2022-10-18T15:09:40;19.70;99.90
7576;DHT22;3829;50.798;4.358;2022-10-18T15:12:06;19.60;99.90
7576;DHT22;3829;50.798;4.358;2022-10-18T15:14:33;19.60;99.90
7576;DHT22;3829;50.798;4.358;2022-10-18T15:17:02;19.60;99.90
7576;DHT22;3829;50.798;4.358;2022-10-18T15:19:32;19.60;99.90
7576;DHT22;3829;50.798;4.358;2022-10-18T15:22:01;19.60;99.90
7576;DHT22;3829;50.798;4.358;2022-10-18T15:26:59;19.30;99.90
7576;DHT22;3829;50.798;4.358;2022-10-18T15:29:25;19.20;99.90
7576;DHT22;3829;50.798;4.358;2022-10-18T15:31:54;19.20;99.90
7576;DHT22;3829;50.798;4.358;2022-10-18T15:34:25;19.10;99.90
7576;DHT22;3829;50.798;4.358;2022-10-18T15:36:53;19.00;99.90
7576;DHT22;3829;50.798;4.358;2022-10-18T15:39:22;19.00;99.90
7576;DHT22;3829;50.798;4.358;2022-10-18T15:41:52;19.00;99.90
7576;DHT22;3829;50.798;4.358;2022-10-18T15:44:30;18.90;99.90
7576;DHT22;3829;50.798;4.358;2022-10-18T15:52:30;18.80;99.90
7576;DHT22;3829;50.798;4.358;2022-10-18T15:54:57;18.80;99.90
7576;DHT22;3829;50.798;4.358;2022-10-18T15:57:24;18.80;99.90
7576;DHT22;3829;50.798;4.358;2022-10-18T16:00:01;18.70;99.90
7576;DHT22;3829;50.798;4.358;2022-10-18T16:02:28;18.60;99.90
7576;DHT22;3829;50.798;4.358;2022-10-18T16:04:54;18.60;99.90
7576;DHT22;3829;50.798;4.358;2022-10-18T16:07:19;18.50;99.90
7576;DHT22;3829;50.798;4.358;2022-10-18T16:09:45;18.50;99.90
7576;DHT22;3829;50.798;4.358;2022-10-18T16:12:10;18.40;99.90
7576;DHT22;3829;50.798;4.358;2022-10-18T16:14:36;18.40;99.90
7576;DHT22;3829;50.798;4.358;2022-10-18T16:17:04;18.30;99.90
7576;DHT22;3829;50.798;4.358;2022-10-18T16:19:30;18.30;99.90
7576;DHT22;3829;50.798;4.358;2022-10-18T16:21:56;18.10;99.90
7576;DHT22;3829;50.798;4.358;2022-10-18T16:24:22;18.10;99.90
7576;DHT22;3829;50.798;4.358;2022-10-18T16:26:48;18.10;99.90
7576;DHT22;3829;50.798;4.358;2022-10-18T16:29:16;18.00;99.90
7576;DHT22;3829;50.798;4.358;2022-10-18T16:31:43;17.90;99.90
7576;DHT22;3829;50.798;4.358;2022-10-18T16:34:11;17.80;99.90
7576;DHT22;3829;50.798;4.358;2022-10-18T16:36:39;17.80;99.90
7576;DHT22;3829;50.798;4.358;2022-10-18T16:39:09;17.70;99.90
7576;DHT22;3829;50.798;4.358;2022-10-18T16:41:37;17.70;99.90
7576;DHT22;3829;50.798;4.358;2022-10-18T16:44:02;17.70;99.90
7576;DHT22;3829;50.798;4.358;2022-10-18T16:46:31;17.50;99.90
7576;DHT22;3829;50.798;4.358;2022-10-18T16:48:57;17.50;99.90
7576;DHT22;3829;50.798;4.358;2022-10-18T16:51:24;17.40;99.90
7576;DHT22;3829;50.798;4.358;2022-10-18T16:53:50;17.20;99.90
7576;DHT22;3829;50.798;4.358;2022-10-18T16:56:26;17.20;99.90
7576;DHT22;3829;50.798;4.358;2022-10-18T16:58:53;17.10;99.90
7576;DHT22;3829;50.798;4.358;2022-10-18T17:01:20;17.10;99.90
7576;DHT22;3829;50.798;4.358;2022-10-18T17:03:46;17.00;99.90
7576;DHT22;3829;50.798;4.358;2022-10-18T17:06:21;17.00;99.90
7576;DHT22;3829;50.798;4.358;2022-10-18T17:08:48;16.90;99.90
7576;DHT22;3829;50.798;4.358;2022-10-18T17:11:15;16.90;99.90
7576;DHT22;3829;50.798;4.358;2022-10-18T17:13:42;16.90;99.90
7576;DHT22;3829;50.798;4.358;2022-10-18T17:16:33;16.80;99.90
7576;DHT22;3829;50.798;4.358;2022-10-18T17:19:00;16.80;99.90
7576;DHT22;3829;50.798;4.358;2022-10-18T17:21:27;16.70;99.90
7576;DHT22;3829;50.798;4.358;2022-10-18T17:23:54;16.70;99.90
7576;DHT22;3829;50.798;4.358;2022-10-18T17:26:22;16.70;99.90
7576;DHT22;3829;50.798;4.358;2022-10-18T17:28:52;16.60;99.90
7576;DHT22;3829;50.798;4.358;2022-10-18T17:31:19;16.60;99.90
7576;DHT22;3829;50.798;4.358;2022-10-18T17:33:44;16.60;99.90
7576;DHT22;3829;50.798;4.358;2022-10-18T17:36:10;16.50;99.90
7576;DHT22;3829;50.798;4.358;2022-10-18T17:38:36;16.50;99.90
7576;DHT22;3829;50.798;4.358;2022-10-18T17:41:09;16.50;99.90
7576;DHT22;3829;50.798;4.358;2022-10-18T17:43:38;16.30;99.90
7576;DHT22;3829;50.798;4.358;2022-10-18T17:46:05;16.40;99.90
7576;DHT22;3829;50.798;4.358;2022-10-18T17:48:31;16.30;99.90
7576;DHT22;3829;50.798;4.358;2022-10-18T17:50:56;16.30;99.90
7576;DHT22;3829;50.798;4.358;2022-10-18T17:53:22;16.30;99.90
7576;DHT22;3829;50.798;4.358;2022-10-18T17:55:59;16.20;99.90
7576;DHT22;3829;50.798;4.358;2022-10-18T17:58:24;16.10;99.90
7576;DHT22;3829;50.798;4.358;2022-10-18T18:00:50;16.10;99.90
7576;DHT22;3829;50.798;4.358;2022-10-18T18:03:16;16.10;99.90
7576;DHT22;3829;50.798;4.358;2022-10-18T18:05:42;16.10;99.90
7576;DHT22;3829;50.798;4.358;2022-10-18T18:08:07;16.00;99.90
7576;DHT22;3829;50.798;4.358;2022-10-18T18:10:33;16.00;99.90
7576;DHT22;3829;50.798;4.358;2022-10-18T18:13:00;15.90;99.90
7576;DHT22;3829;50.798;4.358;2022-10-18T18:15:25;15.90;99.90
7576;DHT22;3829;50.798;4.358;2022-10-18T18:17:51;15.90;99.90
7576;DHT22;3829;50.798;4.358;2022-10-18T18:20:17;15.90;99.90
7576;DHT22;3829;50.798;4.358;2022-10-18T18:22:42;15.90;99.90
7576;DHT22;3829;50.798;4.358;2022-10-18T18:25:08;15.90;99.90
7576;DHT22;3829;50.798;4.358;2022-10-18T18:27:34;15.90;99.90
7576;DHT22;3829;50.798;4.358;2022-10-18T18:30:00;15.80;99.90
7576;DHT22;3829;50.798;4.358;2022-10-18T18:32:25;15.80;99.90
7576;DHT22;3829;50.798;4.358;2022-10-18T18:34:51;15.70;99.90
7576;DHT22;3829;50.798;4.358;2022-10-18T18:37:16;15.70;99.90
7576;DHT22;3829;50.798;4.358;2022-10-18T18:39:42;15.70;99.90
7576;DHT22;3829;50.798;4.358;2022-10-18T18:42:08;15.60;99.90
7576;DHT22;3829;50.798;4.358;2022-10-18T18:44:35;15.60;99.90
7576;DHT22;3829;50.798;4.358;2022-10-18T18:47:00;15.50;99.90
7576;DHT22;3829;50.798;4.358;2022-10-18T18:49:26;15.50;99.90
7576;DHT22;3829;50.798;4.358;2022-10-18T18:51:52;15.50;99.90
7576;DHT22;3829;50.798;4.358;2022-10-18T18:54:18;15.50;99.90
7576;DHT22;3829;50.798;4.358;2022-10-18T18:56:44;15.40;99.90